Time;durP1;ratioP1;P1;durP2;ratioP2;P2;SDS_P1;SDS_P2;PMS_P1;PMS_P2;Temp;Humidity;BMP_temperature;BMP_pressure;BME280_temperature;BME280_humidity;BME280_pressure;Samples;Min_cycle;Max_cycle;Signal;HPM_P1;HPM_P2
2023/12/20 00:01:27;;;;;;;13.37;2.80;;;;;;;;;;6305704;22;20301;-78
2023/12/20 00:03:55;;;;;;;8.93;2.03;;;;;;;;;;6305742;22;20166;-77
2023/12/20 00:06:23;;;;;;;10.33;3.10;;;;;;;;;;6306446;22;20170;-78
2023/12/20 00:08:51;;;;;;;13.80;4.77;;;;;;;;;;6305788;22;20245;-78
2023/12/20 00:11:18;;;;;;;10.93;3.53;;;;;;;;;;6305426;22;20193;-79
2023/12/20 00:13:45;;;;;;;16.07;5.07;;;;;;;;;;6306029;22;20249;-79
2023/12/20 00:16:13;;;;;;;12.60;2.20;;;;;;;;;;6305389;22;20172;-78
2023/12/20 00:18:40;;;;;;;10.43;1.87;;;;;;;;;;6305134;22;20249;-78
2023/12/20 00:21:07;;;;;;;10.03;1.77;;;;;;;;;;6305819;22;20605;-79
2023/12/20 00:23:36;;;;;;;11.37;2.97;;;;;;;;;;6306035;22;20177;-79
2023/12/20 00:26:03;;;;;;;9.27;2.40;;;;;;;;;;6305538;22;20193;-78
2023/12/20 00:28:30;;;;;;;8.37;1.80;;;;;;;;;;6305833;22;20173;-79
2023/12/20 00:30:57;;;;;;;11.57;2.00;;;;;;;;;;6305355;22;20178;-78
2023/12/20 00:33:25;;;;;;;9.77;1.60;;;;;;;;;;6305323;22;20201;-78
2023/12/20 00:35:52;;;;;;;11.77;1.80;;;;;;;;;;6305677;22;20208;-79
2023/12/20 00:38:19;;;;;;;9.43;1.73;;;;;;;;;;6304232;22;20632;-78
2023/12/20 00:40:49;;;;;;;10.97;1.80;;;;;;;;;;6305137;22;20259;-78
2023/12/20 00:43:16;;;;;;;6.30;1.73;;;;;;;;;;6305312;22;20205;-78
2023/12/20 00:45:44;;;;;;;7.83;1.70;;;;;;;;;;6305310;22;20170;-79
2023/12/20 00:48:11;;;;;;;9.47;1.80;;;;;;;;;;6306048;22;20245;-79
2023/12/20 00:50:38;;;;;;;11.93;1.60;;;;;;;;;;6305748;22;20543;-79
2023/12/20 00:53:06;;;;;;;9.50;1.67;;;;;;;;;;6304723;22;20245;-78
2023/12/20 00:55:33;;;;;;;10.03;1.53;;;;;;;;;;6306091;22;20172;-79
2023/12/20 00:58:01;;;;;;;6.47;1.40;;;;;;;;;;6305399;22;20185;-79
2023/12/20 01:00:28;;;;;;;11.03;1.63;;;;;;;;;;6304895;22;20240;-77
2023/12/20 01:02:56;;;;;;;9.27;1.17;;;;;;;;;;6305310;22;20898;-79
2023/12/20 01:05:23;;;;;;;8.33;1.50;;;;;;;;;;6305695;22;20219;-78
2023/12/20 01:07:50;;;;;;;8.90;1.27;;;;;;;;;;6304998;22;20231;-79
2023/12/20 01:10:18;;;;;;;10.30;1.30;;;;;;;;;;6305318;22;20206;-78
2023/12/20 01:12:45;;;;;;;11.97;1.70;;;;;;;;;;6305624;22;20173;-77
2023/12/20 01:15:15;;;;;;;9.60;1.63;;;;;;;;;;6305373;22;20197;-79
2023/12/20 01:17:42;;;;;;;8.87;1.60;;;;;;;;;;6305296;22;20204;-79
2023/12/20 01:20:09;;;;;;;8.47;1.40;;;;;;;;;;6305106;22;20169;-78
2023/12/20 01:22:37;;;;;;;8.03;1.40;;;;;;;;;;6304565;22;20198;-78
2023/12/20 01:25:04;;;;;;;8.03;1.50;;;;;;;;;;6305511;22;20189;-79
2023/12/20 01:27:31;;;;;;;7.10;1.70;;;;;;;;;;6305727;22;20190;-78
2023/12/20 01:29:59;;;;;;;5.70;1.23;;;;;;;;;;6305054;22;20166;-77
2023/12/20 01:32:27;;;;;;;9.43;2.07;;;;;;;;;;6304823;22;20640;-78
2023/12/20 01:34:54;;;;;;;12.13;1.60;;;;;;;;;;6305500;22;20625;-79
2023/12/20 01:37:23;;;;;;;8.97;1.77;;;;;;;;;;6304817;22;20197;-77
2023/12/20 01:39:51;;;;;;;9.80;1.77;;;;;;;;;;6305275;22;20170;-79
2023/12/20 01:42:18;;;;;;;10.33;1.70;;;;;;;;;;6304921;22;20754;-79
2023/12/20 01:44:45;;;;;;;8.47;1.70;;;;;;;;;;6305590;22;20248;-77
2023/12/20 01:47:12;;;;;;;7.07;1.60;;;;;;;;;;6304749;22;20170;-78
2023/12/20 01:49:41;;;;;;;6.13;1.40;;;;;;;;;;6305370;22;20524;-78
2023/12/20 01:52:08;;;;;;;8.20;1.33;;;;;;;;;;6305221;22;20176;-78
2023/12/20 01:54:37;;;;;;;8.83;1.73;;;;;;;;;;6304782;22;20197;-78
2023/12/20 01:57:04;;;;;;;7.83;1.67;;;;;;;;;;6303606;22;20629;-78
2023/12/20 01:59:32;;;;;;;7.57;1.60;;;;;;;;;;6304875;22;20172;-79
2023/12/20 02:02:00;;;;;;;9.47;2.27;;;;;;;;;;6304354;22;20592;-78
2023/12/20 02:04:27;;;;;;;13.83;2.37;;;;;;;;;;6305019;22;20204;-77
2023/12/20 02:06:57;;;;;;;9.50;2.20;;;;;;;;;;6304823;22;20193;-77
2023/12/20 02:09:24;;;;;;;11.50;2.70;;;;;;;;;;6304967;22;20253;-78
2023/12/20 02:11:52;;;;;;;10.93;2.37;;;;;;;;;;6304720;22;20553;-78
2023/12/20 02:14:19;;;;;;;11.37;2.30;;;;;;;;;;6304698;22;20201;-78
2023/12/20 02:16:46;;;;;;;8.83;2.33;;;;;;;;;;6306429;22;20558;-78
2023/12/20 02:19:15;;;;;;;10.00;2.47;;;;;;;;;;6306821;22;20720;-78
2023/12/20 02:21:44;;;;;;;7.33;2.77;;;;;;;;;;6306730;22;20256;-77
2023/12/20 02:24:11;;;;;;;12.27;2.77;;;;;;;;;;6307344;22;20252;-78
2023/12/20 02:26:38;;;;;;;11.17;3.03;;;;;;;;;;6306758;22;20170;-78
2023/12/20 02:29:05;;;;;;;13.47;2.80;;;;;;;;;;6306953;22;20177;-78
2023/12/20 02:31:32;;;;;;;12.83;2.50;;;;;;;;;;6307171;22;20173;-78
2023/12/20 02:34:00;;;;;;;9.10;1.73;;;;;;;;;;6307002;22;20227;-77
2023/12/20 02:36:27;;;;;;;9.87;2.60;;;;;;;;;;6306634;22;20193;-78
2023/12/20 02:38:56;;;;;;;13.37;1.90;;;;;;;;;;6306599;22;20202;-78
2023/12/20 02:41:23;;;;;;;8.73;1.83;;;;;;;;;;6306516;22;20715;-78
2023/12/20 02:43:50;;;;;;;9.67;1.90;;;;;;;;;;6305740;22;20212;-78
2023/12/20 02:46:18;;;;;;;9.67;2.03;;;;;;;;;;6307144;22;20170;-77
2023/12/20 02:48:47;;;;;;;9.80;2.37;;;;;;;;;;6306968;22;20169;-78
2023/12/20 02:51:14;;;;;;;10.07;2.33;;;;;;;;;;6306560;22;20174;-79
2023/12/20 02:53:41;;;;;;;12.67;2.30;;;;;;;;;;6306275;22;20209;-78
2023/12/20 02:56:10;;;;;;;11.77;1.90;;;;;;;;;;6306286;22;20165;-78
2023/12/20 02:58:37;;;;;;;10.80;2.17;;;;;;;;;;6306759;22;20201;-77
2023/12/20 03:01:04;;;;;;;8.80;2.20;;;;;;;;;;6306216;22;20229;-78
2023/12/20 03:03:31;;;;;;;9.03;2.00;;;;;;;;;;6306140;22;20710;-78
2023/12/20 03:05:58;;;;;;;6.40;2.17;;;;;;;;;;6306563;22;20560;-79
2023/12/20 03:08:26;;;;;;;9.97;2.43;;;;;;;;;;6306140;22;20204;-78
2023/12/20 03:10:53;;;;;;;9.27;2.50;;;;;;;;;;6307134;22;20202;-78
2023/12/20 03:13:21;;;;;;;7.93;2.60;;;;;;;;;;6306635;22;20208;-78
2023/12/20 03:15:49;;;;;;;10.70;2.50;;;;;;;;;;6306657;22;20244;-78
2023/12/20 03:18:16;;;;;;;13.00;2.73;;;;;;;;;;6306449;22;20197;-78
2023/12/20 03:20:43;;;;;;;12.00;2.63;;;;;;;;;;6305772;22;20510;-78
2023/12/20 03:23:10;;;;;;;15.13;3.27;;;;;;;;;;6304830;22;20201;-77
2023/12/20 03:25:37;;;;;;;10.90;3.00;;;;;;;;;;6306286;22;20194;-78
2023/12/20 03:28:05;;;;;;;10.93;3.50;;;;;;;;;;6304761;22;20659;-77
2023/12/20 03:30:33;;;;;;;8.73;3.53;;;;;;;;;;6306007;22;20633;-78
2023/12/20 03:33:01;;;;;;;9.60;3.20;;;;;;;;;;6306110;22;20209;-77
2023/12/20 03:35:28;;;;;;;12.93;3.03;;;;;;;;;;6306192;22;20170;-78
2023/12/20 03:37:56;;;;;;;11.13;3.37;;;;;;;;;;6306630;22;20253;-77
2023/12/20 03:40:24;;;;;;;9.17;3.30;;;;;;;;;;6305844;22;20550;-78
2023/12/20 03:42:51;;;;;;;11.53;2.80;;;;;;;;;;6306390;22;20207;-79
2023/12/20 03:45:18;;;;;;;9.00;2.60;;;;;;;;;;6306080;22;20197;-76
2023/12/20 03:47:46;;;;;;;8.40;2.40;;;;;;;;;;6306054;22;20187;-78
2023/12/20 03:50:14;;;;;;;7.70;2.30;;;;;;;;;;6305693;22;20169;-77
2023/12/20 03:52:41;;;;;;;8.63;2.00;;;;;;;;;;6305968;22;20252;-78
2023/12/20 03:55:08;;;;;;;9.57;2.60;;;;;;;;;;6306044;22;20517;-78
2023/12/20 03:57:35;;;;;;;9.93;3.17;;;;;;;;;;6305745;22;20197;-78
2023/12/20 04:00:02;;;;;;;10.90;3.60;;;;;;;;;;6305596;22;20233;-78
2023/12/20 04:02:30;;;;;;;9.70;2.90;;;;;;;;;;6305434;22;20166;-78
2023/12/20 04:04:58;;;;;;;9.63;2.70;;;;;;;;;;6306336;22;20170;-78
2023/12/20 04:07:25;;;;;;;9.63;2.20;;;;;;;;;;6305633;22;20709;-78
2023/12/20 04:09:53;;;;;;;9.30;2.37;;;;;;;;;;6305648;22;20231;-78
2023/12/20 04:12:20;;;;;;;13.47;2.60;;;;;;;;;;6305566;22;20563;-78
2023/12/20 04:14:47;;;;;;;8.83;2.70;;;;;;;;;;6305759;22;20513;-78
2023/12/20 04:17:15;;;;;;;13.43;2.83;;;;;;;;;;6305823;22;20174;-78
2023/12/20 04:19:42;;;;;;;7.87;2.63;;;;;;;;;;6305867;22;20170;-79
2023/12/20 04:22:11;;;;;;;10.20;2.63;;;;;;;;;;6305628;22;20245;-77
2023/12/20 04:24:38;;;;;;;8.17;2.70;;;;;;;;;;6305720;22;20280;-78
2023/12/20 04:27:06;;;;;;;6.63;2.17;;;;;;;;;;6305608;22;20205;-77
2023/12/20 04:29:33;;;;;;;9.00;2.80;;;;;;;;;;6306470;22;20166;-78
2023/12/20 04:32:00;;;;;;;7.70;2.30;;;;;;;;;;6305900;22;20166;-79
2023/12/20 04:34:28;;;;;;;10.70;2.50;;;;;;;;;;6305817;22;20172;-78
2023/12/20 04:36:55;;;;;;;8.13;2.50;;;;;;;;;;6305793;22;20190;-78
2023/12/20 04:39:23;;;;;;;7.67;2.10;;;;;;;;;;6305031;22;20169;-78
2023/12/20 04:41:51;;;;;;;13.53;3.10;;;;;;;;;;6305734;22;20209;-78
2023/12/20 04:44:18;;;;;;;10.20;2.47;;;;;;;;;;6305670;22;20675;-78
2023/12/20 04:46:45;;;;;;;7.37;2.47;;;;;;;;;;6304875;22;20177;-79
2023/12/20 04:49:12;;;;;;;11.27;3.13;;;;;;;;;;6304929;22;20177;-79
2023/12/20 04:51:39;;;;;;;11.60;3.60;;;;;;;;;;6305477;22;20208;-78
2023/12/20 04:54:07;;;;;;;13.57;4.20;;;;;;;;;;6305825;22;20212;-78
2023/12/20 04:56:35;;;;;;;13.90;3.90;;;;;;;;;;6305718;22;20193;-78
2023/12/20 04:59:02;;;;;;;11.20;3.20;;;;;;;;;;6304986;22;20812;-78
2023/12/20 05:01:30;;;;;;;7.60;2.77;;;;;;;;;;6305109;22;20288;-78
2023/12/20 05:03:57;;;;;;;7.87;2.50;;;;;;;;;;6303917;22;20201;-77
2023/12/20 05:06:25;;;;;;;8.53;2.20;;;;;;;;;;6305049;22;20169;-78
2023/12/20 05:08:52;;;;;;;9.83;2.33;;;;;;;;;;6305272;22;20165;-78
2023/12/20 05:11:20;;;;;;;10.20;2.53;;;;;;;;;;6305727;22;20249;-79
2023/12/20 05:13:48;;;;;;;11.20;2.63;;;;;;;;;;6305639;22;20652;-78
2023/12/20 05:16:17;;;;;;;10.93;3.00;;;;;;;;;;6304925;22;20193;-78
2023/12/20 05:18:44;;;;;;;10.80;3.70;;;;;;;;;;6304761;22;20577;-78
2023/12/20 05:21:12;;;;;;;13.03;4.00;;;;;;;;;;6304565;22;20196;-78
2023/12/20 05:23:39;;;;;;;13.87;4.80;;;;;;;;;;6305601;22;20237;-78
2023/12/20 05:26:06;;;;;;;11.40;4.40;;;;;;;;;;6305083;22;20699;-78
2023/12/20 05:28:33;;;;;;;9.23;3.03;;;;;;;;;;6305001;22;20227;-77
2023/12/20 05:31:02;;;;;;;7.40;2.40;;;;;;;;;;6305223;22;20221;-78
2023/12/20 05:33:29;;;;;;;12.13;2.83;;;;;;;;;;6305498;22;20170;-78
2023/12/20 05:35:56;;;;;;;10.63;2.83;;;;;;;;;;6304706;22;20169;-78
2023/12/20 05:38:23;;;;;;;10.33;2.77;;;;;;;;;;6305200;22;20213;-78
2023/12/20 05:40:50;;;;;;;8.47;2.47;;;;;;;;;;6306175;22;20581;-78
2023/12/20 05:43:18;;;;;;;10.23;2.70;;;;;;;;;;6304324;22;20710;-77
2023/12/20 05:45:45;;;;;;;12.50;2.83;;;;;;;;;;6305232;22;20248;-76
2023/12/20 05:48:13;;;;;;;8.23;3.17;;;;;;;;;;6304359;22;20173;-78
2023/12/20 05:50:41;;;;;;;11.57;3.40;;;;;;;;;;6305670;22;20170;-78
2023/12/20 05:53:08;;;;;;;8.13;3.00;;;;;;;;;;6307505;22;20245;-78
2023/12/20 05:55:35;;;;;;;12.90;3.13;;;;;;;;;;6307170;22;20170;-79
2023/12/20 05:58:02;;;;;;;9.17;3.43;;;;;;;;;;6306840;22;20198;-78
2023/12/20 06:00:30;;;;;;;14.30;4.20;;;;;;;;;;6306813;22;20683;-78
2023/12/20 06:02:57;;;;;;;9.40;3.97;;;;;;;;;;6306871;22;20172;-78
2023/12/20 06:05:25;;;;;;;9.03;3.53;;;;;;;;;;6307038;22;20170;-77
2023/12/20 06:07:52;;;;;;;10.97;3.70;;;;;;;;;;6306450;22;20253;-78
2023/12/20 06:10:20;;;;;;;10.33;3.87;;;;;;;;;;6307016;22;20256;-78
2023/12/20 06:12:49;;;;;;;11.77;4.07;;;;;;;;;;6307073;22;20213;-78
2023/12/20 06:15:17;;;;;;;10.23;3.80;;;;;;;;;;6306952;22;20174;-77
2023/12/20 06:17:44;;;;;;;6.73;3.90;;;;;;;;;;6307037;22;20238;-77
2023/12/20 06:20:12;;;;;;;15.67;4.50;;;;;;;;;;6306918;22;20556;-76
2023/12/20 06:22:41;;;;;;;12.00;4.13;;;;;;;;;;6306959;22;20177;-78
2023/12/20 06:25:08;;;;;;;9.13;3.27;;;;;;;;;;6306445;22;20731;-77
2023/12/20 06:27:36;;;;;;;10.13;3.17;;;;;;;;;;6306998;22;20170;-78
2023/12/20 06:30:03;;;;;;;9.33;2.60;;;;;;;;;;6306528;22;20215;-77
2023/12/20 06:32:30;;;;;;;10.47;1.90;;;;;;;;;;6307152;22;20212;-77
2023/12/20 06:34:57;;;;;;;11.30;2.20;;;;;;;;;;6306913;22;20194;-78
2023/12/20 06:37:24;;;;;;;8.13;2.70;;;;;;;;;;6306744;22;20648;-77
2023/12/20 06:39:53;;;;;;;12.43;2.70;;;;;;;;;;6306181;22;20249;-78
2023/12/20 06:42:20;;;;;;;5.50;2.30;;;;;;;;;;6306852;22;20170;-78
2023/12/20 06:44:47;;;;;;;6.47;2.03;;;;;;;;;;6304431;22;20281;-78
2023/12/20 06:47:15;;;;;;;8.30;1.93;;;;;;;;;;6305039;22;20201;-78
2023/12/20 06:49:42;;;;;;;7.10;1.73;;;;;;;;;;6297594;22;20252;-78
2023/12/20 06:52:09;;;;;;;11.30;2.23;;;;;;;;;;6299237;22;20223;-78
2023/12/20 06:54:36;;;;;;;9.37;1.70;;;;;;;;;;6303398;22;20260;-77
2023/12/20 06:57:05;;;;;;;7.33;1.53;;;;;;;;;;6305089;22;20170;-77
2023/12/20 06:59:32;;;;;;;8.37;1.90;;;;;;;;;;6306171;22;20260;-79
2023/12/20 07:01:59;;;;;;;11.73;1.83;;;;;;;;;;6305265;22;20204;-77
2023/12/20 07:04:27;;;;;;;8.77;1.80;;;;;;;;;;6305852;22;20283;-77
2023/12/20 07:06:57;;;;;;;7.43;1.90;;;;;;;;;;6302995;22;20769;-77
2023/12/20 07:09:24;;;;;;;10.13;1.80;;;;;;;;;;6305279;22;20207;-78
2023/12/20 07:11:51;;;;;;;11.60;2.53;;;;;;;;;;6302742;22;20202;-77
2023/12/20 07:14:20;;;;;;;10.23;3.47;;;;;;;;;;6304972;22;20198;-77
2023/12/20 07:16:47;;;;;;;11.27;3.80;;;;;;;;;;6306057;22;20227;-77
2023/12/20 07:19:14;;;;;;;13.47;2.90;;;;;;;;;;6305867;22;20202;-77
2023/12/20 07:21:41;;;;;;;10.60;2.90;;;;;;;;;;6306070;22;20243;-77
2023/12/20 07:24:09;;;;;;;11.00;3.63;;;;;;;;;;6304744;22;20209;-78
2023/12/20 07:26:37;;;;;;;11.30;3.60;;;;;;;;;;6305003;22;20215;-78
2023/12/20 07:29:05;;;;;;;12.30;3.10;;;;;;;;;;6305642;22;20166;-78
2023/12/20 07:31:34;;;;;;;17.20;3.17;;;;;;;;;;6305842;22;20170;-78
2023/12/20 07:34:01;;;;;;;12.87;3.10;;;;;;;;;;6305522;22;20174;-78
2023/12/20 07:36:29;;;;;;;11.57;2.97;;;;;;;;;;6305280;22;20177;-77
2023/12/20 07:38:56;;;;;;;11.13;2.83;;;;;;;;;;6304842;22;20675;-78
2023/12/20 07:41:23;;;;;;;8.87;3.10;;;;;;;;;;6305410;22;20184;-78
2023/12/20 07:43:51;;;;;;;15.93;3.00;;;;;;;;;;6305642;22;20208;-77
2023/12/20 07:46:22;;;;;;;13.37;3.40;;;;;;;;;;6304797;22;20170;-77
2023/12/20 07:48:50;;;;;;;10.73;2.80;;;;;;;;;;6305529;22;20167;-77
2023/12/20 07:51:18;;;;;;;11.10;2.87;;;;;;;;;;6305017;22;20245;-78
2023/12/20 07:53:45;;;;;;;16.87;3.00;;;;;;;;;;6304952;22;20181;-76
2023/12/20 07:56:16;;;;;;;14.57;3.50;;;;;;;;;;6305675;22;20178;-78
2023/12/20 07:58:43;;;;;;;12.60;3.50;;;;;;;;;;6305340;22;20166;-77
2023/12/20 08:01:11;;;;;;;15.53;4.00;;;;;;;;;;6304985;22;20206;-78
2023/12/20 08:03:38;;;;;;;15.40;4.97;;;;;;;;;;6305877;22;20197;-78
2023/12/20 08:06:07;;;;;;;15.77;5.20;;;;;;;;;;6305793;22;20166;-79
2023/12/20 08:08:34;;;;;;;15.83;5.13;;;;;;;;;;6304702;22;20636;-78
2023/12/20 08:11:02;;;;;;;11.73;4.13;;;;;;;;;;6305190;22;20628;-77
2023/12/20 08:13:29;;;;;;;11.93;3.60;;;;;;;;;;6305321;22;20166;-77
2023/12/20 08:15:57;;;;;;;20.40;3.60;;;;;;;;;;6305905;22;20205;-78
2023/12/20 08:18:24;;;;;;;11.53;3.23;;;;;;;;;;6305339;22;20249;-77
2023/12/20 08:20:52;;;;;;;11.97;3.70;;;;;;;;;;6305397;22;20701;-78
2023/12/20 08:23:21;;;;;;;12.87;4.57;;;;;;;;;;6305236;22;20170;-77
2023/12/20 08:25:49;;;;;;;13.93;4.93;;;;;;;;;;6306022;22;20201;-77
2023/12/20 08:28:16;;;;;;;14.03;5.30;;;;;;;;;;6304396;22;20504;-77
2023/12/20 08:30:43;;;;;;;15.57;4.53;;;;;;;;;;6305196;22;20565;-78
2023/12/20 08:33:12;;;;;;;8.87;4.03;;;;;;;;;;6305168;22;20177;-78
2023/12/20 08:35:39;;;;;;;17.23;4.67;;;;;;;;;;6304548;22;20651;-77
2023/12/20 08:38:07;;;;;;;13.47;4.93;;;;;;;;;;6304285;22;20174;-78
2023/12/20 08:40:35;;;;;;;14.27;6.30;;;;;;;;;;6304808;22;20180;-77
2023/12/20 08:43:03;;;;;;;16.67;6.23;;;;;;;;;;6304900;22;20284;-77
2023/12/20 08:45:30;;;;;;;12.53;5.80;;;;;;;;;;6305452;22;20261;-77
2023/12/20 08:47:57;;;;;;;16.73;6.93;;;;;;;;;;6305279;22;20198;-76
2023/12/20 08:50:25;;;;;;;11.70;5.13;;;;;;;;;;6304685;22;20257;-75
2023/12/20 08:52:52;;;;;;;14.13;6.20;;;;;;;;;;6304512;22;20176;-76
2023/12/20 08:55:19;;;;;;;17.00;6.67;;;;;;;;;;6304938;22;20222;-77
2023/12/20 08:57:49;;;;;;;12.23;5.83;;;;;;;;;;6304137;22;20558;-76
2023/12/20 09:00:16;;;;;;;14.70;5.40;;;;;;;;;;6305272;22;20209;-77
2023/12/20 09:02:43;;;;;;;11.33;4.63;;;;;;;;;;6303966;22;20212;-76
2023/12/20 09:05:10;;;;;;;12.97;4.80;;;;;;;;;;6304509;22;20284;-76
2023/12/20 09:07:37;;;;;;;9.37;4.10;;;;;;;;;;6304760;22;20550;-76
2023/12/20 09:10:05;;;;;;;13.27;4.13;;;;;;;;;;6304452;22;20644;-77
2023/12/20 09:12:32;;;;;;;8.80;3.70;;;;;;;;;;6304625;22;20240;-79
2023/12/20 09:15:02;;;;;;;7.70;3.53;;;;;;;;;;6305132;22;20264;-77
2023/12/20 09:17:29;;;;;;;11.40;4.20;;;;;;;;;;6305123;22;20293;-77
2023/12/20 09:19:57;;;;;;;8.20;3.57;;;;;;;;;;6304828;22;20193;-77
2023/12/20 09:22:24;;;;;;;9.53;3.80;;;;;;;;;;6304076;22;20709;-77
2023/12/20 09:24:51;;;;;;;11.63;3.47;;;;;;;;;;6304933;22;20233;-77
2023/12/20 09:27:18;;;;;;;8.30;3.17;;;;;;;;;;6305234;22;20555;-76
2023/12/20 09:29:45;;;;;;;8.57;3.03;;;;;;;;;;6304448;22;20580;-75
2023/12/20 09:32:14;;;;;;;9.03;3.90;;;;;;;;;;6304675;22;20680;-76
2023/12/20 09:34:41;;;;;;;12.97;4.70;;;;;;;;;;6305134;22;20208;-77
2023/12/20 09:37:08;;;;;;;13.07;3.40;;;;;;;;;;6303610;22;20162;-77
2023/12/20 09:39:35;;;;;;;8.00;2.83;;;;;;;;;;6303731;22;20198;-77
2023/12/20 09:42:04;;;;;;;8.87;2.67;;;;;;;;;;6304227;22;20200;-77
2023/12/20 09:44:32;;;;;;;10.30;2.97;;;;;;;;;;6304640;22;20193;-77
2023/12/20 09:47:00;;;;;;;6.80;2.73;;;;;;;;;;6304473;22;20220;-77
2023/12/20 09:49:29;;;;;;;9.07;2.20;;;;;;;;;;6304522;22;20253;-76
2023/12/20 09:51:56;;;;;;;8.87;2.70;;;;;;;;;;6304440;22;20260;-77
2023/12/20 09:54:24;;;;;;;7.33;2.80;;;;;;;;;;6303935;22;20170;-77
2023/12/20 09:56:51;;;;;;;10.00;2.90;;;;;;;;;;6305440;22;20204;-76
2023/12/20 09:59:19;;;;;;;7.50;2.90;;;;;;;;;;6304880;22;20270;-77
2023/12/20 10:01:46;;;;;;;7.83;2.60;;;;;;;;;;6304321;22;20221;-77
2023/12/20 10:04:14;;;;;;;8.20;2.70;;;;;;;;;;6303884;22;20189;-77
2023/12/20 10:06:43;;;;;;;8.50;3.00;;;;;;;;;;6304647;22;20170;-77
2023/12/20 10:09:11;;;;;;;11.10;3.40;;;;;;;;;;6304030;22;20177;-77
2023/12/20 10:11:38;;;;;;;9.03;3.17;;;;;;;;;;6302858;22;20177;-77
2023/12/20 10:14:06;;;;;;;9.93;3.20;;;;;;;;;;6303952;22;20193;-78
2023/12/20 10:16:33;;;;;;;9.07;2.80;;;;;;;;;;6304542;22;20170;-77
2023/12/20 10:19:02;;;;;;;11.70;2.77;;;;;;;;;;6303987;22;20269;-78
2023/12/20 10:21:29;;;;;;;7.13;2.70;;;;;;;;;;6304973;22;20246;-75
2023/12/20 10:23:58;;;;;;;8.30;2.40;;;;;;;;;;6304297;22;20174;-77
2023/12/20 10:26:25;;;;;;;8.60;2.83;;;;;;;;;;6304076;22;20237;-76
2023/12/20 10:28:53;;;;;;;8.23;2.17;;;;;;;;;;6304544;22;20331;-78
2023/12/20 10:31:27;;;;;;;8.13;2.30;;;;;;;;;;6304050;22;20189;-77
2023/12/20 10:33:54;;;;;;;8.83;3.27;;;;;;;;;;6303789;22;20170;-77
2023/12/20 10:36:21;;;;;;;11.77;3.23;;;;;;;;;;6303098;22;20257;-76
2023/12/20 10:38:51;;;;;;;9.20;2.90;;;;;;;;;;6306242;22;20209;-77
2023/12/20 10:41:22;;;;;;;11.33;2.90;;;;;;;;;;6305534;22;20552;-77
2023/12/20 10:43:50;;;;;;;11.37;3.17;;;;;;;;;;6306192;22;20220;-76
2023/12/20 10:46:18;;;;;;;11.33;3.50;;;;;;;;;;6305488;22;20205;-76
2023/12/20 10:48:46;;;;;;;10.43;2.80;;;;;;;;;;6304389;22;20173;-77
2023/12/20 10:51:13;;;;;;;13.97;3.40;;;;;;;;;;6305604;22;20193;-77
2023/12/20 10:53:41;;;;;;;11.43;2.80;;;;;;;;;;6305431;22;20220;-77
2023/12/20 10:56:09;;;;;;;10.87;3.03;;;;;;;;;;6305431;22;20256;-79
2023/12/20 10:58:39;;;;;;;6.80;2.53;;;;;;;;;;6305933;22;20178;-77
2023/12/20 11:01:07;;;;;;;12.77;3.20;;;;;;;;;;6305527;22;20221;-77
2023/12/20 11:03:36;;;;;;;15.00;2.67;;;;;;;;;;6305532;22;20170;-78
2023/12/20 11:06:06;;;;;;;10.27;2.13;;;;;;;;;;6305913;22;20201;-77
2023/12/20 11:08:37;;;;;;;9.43;2.27;;;;;;;;;;6305714;22;20170;-77
2023/12/20 11:11:07;;;;;;;11.38;2.30;;;;;;;;;;6303633;22;20264;-77
2023/12/20 11:13:36;;;;;;;9.75;2.30;;;;;;;;;;6304970;22;20174;-77
2023/12/20 11:16:05;;;;;;;12.10;2.47;;;;;;;;;;6305781;22;20649;-77
2023/12/20 11:18:32;;;;;;;8.77;3.08;;;;;;;;;;6305743;22;20170;-77
2023/12/20 11:21:03;;;;;;;9.98;2.65;;;;;;;;;;6305752;22;20560;-76
2023/12/20 11:23:33;;;;;;;10.80;2.90;;;;;;;;;;6306059;22;20166;-76
2023/12/20 11:26:00;;;;;;;12.20;2.75;;;;;;;;;;6305486;22;20204;-76
2023/12/20 11:28:29;;;;;;;12.27;3.00;;;;;;;;;;6305905;22;20252;-77
2023/12/20 11:30:59;;;;;;;10.88;2.97;;;;;;;;;;6305891;22;20178;-76
2023/12/20 11:33:31;;;;;;;9.05;2.83;;;;;;;;;;6306440;22;20655;-79
2023/12/20 11:35:59;;;;;;;8.77;2.88;;;;;;;;;;6305957;22;20198;-76
2023/12/20 11:38:26;;;;;;;8.52;3.05;;;;;;;;;;6305785;22;20166;-77
2023/12/20 11:40:55;;;;;;;9.82;2.50;;;;;;;;;;6306083;22;20204;-77
2023/12/20 11:43:32;;;;;;;10.00;2.65;;;;;;;;;;6306178;22;20201;-77
2023/12/20 11:46:04;;;;;;;9.13;2.25;;;;;;;;;;6305275;22;20197;-78
2023/12/20 11:48:33;;;;;;;11.05;2.75;;;;;;;;;;6304705;22;20635;-75
2023/12/20 11:51:00;;;;;;;15.10;2.78;;;;;;;;;;6305409;22;20176;-76
2023/12/20 11:53:28;;;;;;;10.68;2.63;;;;;;;;;;6305694;22;20217;-76
2023/12/20 11:55:55;;;;;;;8.00;2.58;;;;;;;;;;6303461;22;20169;-76
2023/12/20 11:58:23;;;;;;;13.55;2.42;;;;;;;;;;6305924;22;20648;-76
2023/12/20 12:00:51;;;;;;;11.80;2.38;;;;;;;;;;6305100;22;20198;-76
2023/12/20 12:03:18;;;;;;;7.03;2.20;;;;;;;;;;6304147;22;20180;-76
2023/12/20 12:05:49;;;;;;;9.63;2.17;;;;;;;;;;6306383;22;20194;-76
2023/12/20 12:08:16;;;;;;;9.60;2.90;;;;;;;;;;6304077;22;20560;-76
2023/12/20 12:10:44;;;;;;;7.10;2.38;;;;;;;;;;6305766;22;20170;-76
2023/12/20 12:13:11;;;;;;;6.78;1.85;;;;;;;;;;6303441;22;20170;-77
2023/12/20 12:15:39;;;;;;;9.23;2.15;;;;;;;;;;6305261;22;20556;-76
2023/12/20 12:18:06;;;;;;;6.47;1.80;;;;;;;;;;6304312;22;20889;-76
2023/12/20 12:20:33;;;;;;;11.45;2.30;;;;;;;;;;6305377;22;20197;-77
2023/12/20 12:23:03;;;;;;;9.25;2.47;;;;;;;;;;6304913;22;20169;-76
2023/12/20 12:25:31;;;;;;;9.55;1.75;;;;;;;;;;6302812;22;20203;-75
2023/12/20 12:27:58;;;;;;;6.97;2.25;;;;;;;;;;6303971;22;20654;-75
2023/12/20 12:30:25;;;;;;;7.68;2.15;;;;;;;;;;6304744;22;20547;-74
2023/12/20 12:32:52;;;;;;;8.13;2.05;;;;;;;;;;6305706;22;20201;-76
2023/12/20 12:35:20;;;;;;;7.65;1.90;;;;;;;;;;6305160;22;20568;-77
2023/12/20 12:37:47;;;;;;;7.60;2.00;;;;;;;;;;6305264;22;20205;-76
2023/12/20 12:40:17;;;;;;;7.85;1.52;;;;;;;;;;6305847;22;20185;-76
2023/12/20 12:42:45;;;;;;;7.40;1.90;;;;;;;;;;6305467;22;20177;-76
2023/12/20 12:45:12;;;;;;;8.63;1.80;;;;;;;;;;6304476;22;20173;-77
2023/12/20 12:47:39;;;;;;;6.53;1.73;;;;;;;;;;6305407;22;20173;-77
2023/12/20 12:50:07;;;;;;;7.30;1.60;;;;;;;;;;6304951;22;20588;-76
2023/12/20 12:52:35;;;;;;;10.40;1.60;;;;;;;;;;6305475;22;20213;-76
2023/12/20 12:55:03;;;;;;;12.18;2.45;;;;;;;;;;6304583;22;20166;-77
2023/12/20 12:57:32;;;;;;;7.05;1.40;;;;;;;;;;6304546;22;20246;-77
2023/12/20 12:59:59;;;;;;;7.68;1.63;;;;;;;;;;6305154;22;20197;-77
2023/12/20 13:02:26;;;;;;;11.00;1.73;;;;;;;;;;6304830;22;20170;-77
2023/12/20 13:04:53;;;;;;;10.85;1.67;;;;;;;;;;6305545;22;20192;-77
2023/12/20 13:07:21;;;;;;;6.80;1.77;;;;;;;;;;6304697;22;20380;-77
2023/12/20 13:09:48;;;;;;;9.20;1.75;;;;;;;;;;6305069;22;20234;-77
2023/12/20 13:12:15;;;;;;;6.95;1.77;;;;;;;;;;6303863;22;20201;-77
2023/12/20 13:14:43;;;;;;;6.63;1.70;;;;;;;;;;6304460;22;20252;-77
2023/12/20 13:17:11;;;;;;;9.63;1.97;;;;;;;;;;6304991;22;20174;-78
2023/12/20 13:19:38;;;;;;;10.07;2.17;;;;;;;;;;6304487;22;20201;-76
2023/12/20 13:22:06;;;;;;;9.40;2.00;;;;;;;;;;6303989;22;20197;-77
2023/12/20 13:24:33;;;;;;;9.87;2.23;;;;;;;;;;6304560;22;20165;-77
2023/12/20 13:27:00;;;;;;;5.73;1.47;;;;;;;;;;6303906;22;20535;-78
2023/12/20 13:29:27;;;;;;;7.87;1.50;;;;;;;;;;6301843;22;20177;-77
2023/12/20 13:31:56;;;;;;;10.87;1.87;;;;;;;;;;6298791;22;20180;-78
2023/12/20 13:34:24;;;;;;;7.53;1.77;;;;;;;;;;6301159;22;20201;-78
2023/12/20 13:36:51;;;;;;;9.73;2.20;;;;;;;;;;6302061;22;20260;-78
2023/12/20 13:39:18;;;;;;;7.07;2.03;;;;;;;;;;6302105;22;20223;-76
2023/12/20 13:41:46;;;;;;;12.07;3.50;;;;;;;;;;6303327;22;20173;-77
2023/12/20 13:44:13;;;;;;;12.00;4.23;;;;;;;;;;6301301;22;20185;-77
2023/12/20 13:46:40;;;;;;;10.10;4.10;;;;;;;;;;6299481;22;20209;-78
2023/12/20 13:49:09;;;;;;;9.65;3.38;;;;;;;;;;6301836;22;20166;-77
2023/12/20 13:51:36;;;;;;;6.97;1.60;;;;;;;;;;6303569;22;20298;-78
2023/12/20 13:54:03;;;;;;;5.63;1.60;;;;;;;;;;6301418;22;20248;-77
2023/12/20 13:56:30;;;;;;;8.00;1.90;;;;;;;;;;6302541;22;20703;-77
2023/12/20 13:58:58;;;;;;;10.40;3.23;;;;;;;;;;6303465;22;20503;-78
2023/12/20 14:01:26;;;;;;;15.67;4.37;;;;;;;;;;6303489;22;20197;-78
2023/12/20 14:03:53;;;;;;;14.87;5.83;;;;;;;;;;6303823;22;20648;-77
2023/12/20 14:06:22;;;;;;;12.80;4.67;;;;;;;;;;6302544;22;20194;-77
2023/12/20 14:08:49;;;;;;;10.27;4.03;;;;;;;;;;6302869;22;20190;-77
2023/12/20 14:11:16;;;;;;;8.27;3.50;;;;;;;;;;6300381;22;20611;-78
2023/12/20 14:13:43;;;;;;;10.27;3.27;;;;;;;;;;6302188;22;20192;-77
2023/12/20 14:16:10;;;;;;;8.57;2.87;;;;;;;;;;6304820;22;20205;-78
2023/12/20 14:18:38;;;;;;;9.70;2.50;;;;;;;;;;6302801;22;20315;-77
2023/12/20 14:21:07;;;;;;;8.87;2.33;;;;;;;;;;6303444;22;20223;-78
2023/12/20 14:23:35;;;;;;;10.23;2.37;;;;;;;;;;6304177;22;20201;-78
2023/12/20 14:26:03;;;;;;;8.73;2.80;;;;;;;;;;6303891;22;20596;-78
2023/12/20 14:28:30;;;;;;;6.67;2.43;;;;;;;;;;6304872;22;20227;-78
2023/12/20 14:30:57;;;;;;;8.53;2.40;;;;;;;;;;6303883;22;20209;-78
2023/12/20 14:33:25;;;;;;;7.83;2.30;;;;;;;;;;6306028;22;20258;-78
2023/12/20 14:35:53;;;;;;;9.93;2.40;;;;;;;;;;6304462;22;20170;-77
2023/12/20 14:38:20;;;;;;;12.80;2.57;;;;;;;;;;6304695;22;20231;-77